sensor_id;sensor_type;location;lat;lon;timestamp;temperature;humidity
56123;DHT22;42426;46.104;19.656;2022-11-20T00:01:10;154.20;2252.80
56123;DHT22;42426;46.104;19.656;2022-11-20T00:03:36;154.20;2252.80
56123;DHT22;42426;46.104;19.656;2022-11-20T00:06:07;154.20;2252.80
56123;DHT22;42426;46.104;19.656;2022-11-20T00:08:34;154.20;2252.80
56123;DHT22;42426;46.104;19.656;2022-11-20T00:11:20;154.20;2252.80
56123;DHT22;42426;46.104;19.656;2022-11-20T00:13:49;154.10;2252.80
56123;DHT22;42426;46.104;19.656;2022-11-20T00:16:18;154.10;2252.80
56123;DHT22;42426;46.104;19.656;2022-11-20T00:18:44;154.10;2252.80
56123;DHT22;42426;46.104;19.656;2022-11-20T00:21:12;154.10;2252.80
56123;DHT22;42426;46.104;19.656;2022-11-20T00:23:38;154.20;2252.80
56123;DHT22;42426;46.104;19.656;2022-11-20T00:26:10;154.10;2252.80
56123;DHT22;42426;46.104;19.656;2022-11-20T00:28:36;154.10;2252.80
56123;DHT22;42426;46.104;19.656;2022-11-20T00:31:08;154.10;2252.80
56123;DHT22;42426;46.104;19.656;2022-11-20T00:33:34;154.10;2252.80
56123;DHT22;42426;46.104;19.656;2022-11-20T00:36:05;154.20;2252.80
56123;DHT22;42426;46.104;19.656;2022-11-20T00:38:33;154.20;2252.80
56123;DHT22;42426;46.104;19.656;2022-11-20T00:41:01;154.20;2252.80
56123;DHT22;42426;46.104;19.656;2022-11-20T00:43:28;154.10;2252.80
56123;DHT22;42426;46.104;19.656;2022-11-20T00:46:02;154.10;2252.80
56123;DHT22;42426;46.104;19.656;2022-11-20T00:48:28;154.20;2252.80
56123;DHT22;42426;46.104;19.656;2022-11-20T00:50:54;154.20;2252.80
56123;DHT22;42426;46.104;19.656;2022-11-20T00:53:21;154.20;2252.80
56123;DHT22;42426;46.104;19.656;2022-11-20T00:55:58;154.20;2252.80
56123;DHT22;42426;46.104;19.656;2022-11-20T00:58:31;154.30;2252.80
56123;DHT22;42426;46.104;19.656;2022-11-20T01:01:08;154.20;2252.80
56123;DHT22;42426;46.104;19.656;2022-11-20T01:03:37;154.30;2252.80
56123;DHT22;42426;46.104;19.656;2022-11-20T01:06:07;154.30;2252.80
56123;DHT22;42426;46.104;19.656;2022-11-20T01:08:36;154.30;2252.80
56123;DHT22;42426;46.104;19.656;2022-11-20T01:11:03;154.30;2252.80
56123;DHT22;42426;46.104;19.656;2022-11-20T01:13:30;154.30;2252.80
56123;DHT22;42426;46.104;19.656;2022-11-20T01:16:06;154.30;2252.80
56123;DHT22;42426;46.104;19.656;2022-11-20T01:18:32;154.30;2252.80
56123;DHT22;42426;46.104;19.656;2022-11-20T01:21:06;154.30;2252.80
56123;DHT22;42426;46.104;19.656;2022-11-20T01:23:33;154.30;2252.80
56123;DHT22;42426;46.104;19.656;2022-11-20T01:26:07;154.30;2252.80
56123;DHT22;42426;46.104;19.656;2022-11-20T01:28:33;154.20;2252.80
56123;DHT22;42426;46.104;19.656;2022-11-20T01:31:00;154.30;2252.80
56123;DHT22;42426;46.104;19.656;2022-11-20T01:33:26;154.30;2252.80
56123;DHT22;42426;46.104;19.656;2022-11-20T01:35:52;154.30;2252.80
56123;DHT22;42426;46.104;19.656;2022-11-20T01:38:19;154.30;2252.80
56123;DHT22;42426;46.104;19.656;2022-11-20T01:40:55;154.30;2252.80
56123;DHT22;42426;46.104;19.656;2022-11-20T01:43:21;154.20;2252.80
56123;DHT22;42426;46.104;19.656;2022-11-20T01:48:42;154.20;2252.80
56123;DHT22;42426;46.104;19.656;2022-11-20T01:51:21;154.20;2252.80
56123;DHT22;42426;46.104;19.656;2022-11-20T01:53:48;154.20;2252.80
56123;DHT22;42426;46.104;19.656;2022-11-20T01:56:15;154.20;2252.80
56123;DHT22;42426;46.104;19.656;2022-11-20T01:58:46;154.10;2252.80
56123;DHT22;42426;46.104;19.656;2022-11-20T02:01:13;154.10;2252.80
56123;DHT22;42426;46.104;19.656;2022-11-20T02:03:40;154.00;2252.80
56123;DHT22;42426;46.104;19.656;2022-11-20T02:06:11;154.00;2252.80
56123;DHT22;42426;46.104;19.656;2022-11-20T02:08:38;154.10;2252.80
56123;DHT22;42426;46.104;19.656;2022-11-20T02:11:06;154.00;2252.80
56123;DHT22;42426;46.104;19.656;2022-11-20T02:13:33;154.10;2252.80
56123;DHT22;42426;46.104;19.656;2022-11-20T02:16:13;154.00;2252.80
56123;DHT22;42426;46.104;19.656;2022-11-20T02:18:40;154.10;2252.80
56123;DHT22;42426;46.104;19.656;2022-11-20T02:21:13;154.00;2252.80
56123;DHT22;42426;46.104;19.656;2022-11-20T02:26:26;153.90;2252.80
56123;DHT22;42426;46.104;19.656;2022-11-20T02:28:53;153.90;2252.80
56123;DHT22;42426;46.104;19.656;2022-11-20T02:31:19;153.90;2252.80
56123;DHT22;42426;46.104;19.656;2022-11-20T02:33:46;153.90;2252.80
56123;DHT22;42426;46.104;19.656;2022-11-20T02:36:15;153.90;2252.80
56123;DHT22;42426;46.104;19.656;2022-11-20T02:38:42;153.90;2252.80
56123;DHT22;42426;46.104;19.656;2022-11-20T02:41:08;153.90;2252.80
56123;DHT22;42426;46.104;19.656;2022-11-20T02:43:34;153.90;2252.80
56123;DHT22;42426;46.104;19.656;2022-11-20T02:46:00;153.80;2252.80
56123;DHT22;42426;46.104;19.656;2022-11-20T02:48:25;153.90;2252.80
56123;DHT22;42426;46.104;19.656;2022-11-20T02:50:51;153.90;2252.80
56123;DHT22;42426;46.104;19.656;2022-11-20T02:53:17;153.90;2252.80
56123;DHT22;42426;46.104;19.656;2022-11-20T02:55:44;153.90;2252.80
56123;DHT22;42426;46.104;19.656;2022-11-20T02:58:09;153.90;2252.80
56123;DHT22;42426;46.104;19.656;2022-11-20T03:00:35;153.90;2252.80
56123;DHT22;42426;46.104;19.656;2022-11-20T03:03:01;153.90;2252.80
56123;DHT22;42426;46.104;19.656;2022-11-20T03:05:27;153.80;2252.80
56123;DHT22;42426;46.104;19.656;2022-11-20T03:07:53;153.70;2252.80
56123;DHT22;42426;46.104;19.656;2022-11-20T03:10:18;153.70;2252.80
56123;DHT22;42426;46.104;19.656;2022-11-20T03:12:44;153.70;2252.80
56123;DHT22;42426;46.104;19.656;2022-11-20T03:15:12;153.70;2252.80
56123;DHT22;42426;46.104;19.656;2022-11-20T03:17:38;153.80;2252.80
56123;DHT22;42426;46.104;19.656;2022-11-20T03:20:05;153.80;2252.80
56123;DHT22;42426;46.104;19.656;2022-11-20T03:22:31;153.80;2252.80
56123;DHT22;42426;46.104;19.656;2022-11-20T03:24:57;153.80;2252.80
56123;DHT22;42426;46.104;19.656;2022-11-20T03:27:23;153.80;2252.80
56123;DHT22;42426;46.104;19.656;2022-11-20T03:29:49;153.80;2252.80
56123;DHT22;42426;46.104;19.656;2022-11-20T03:32:15;153.80;2252.80
56123;DHT22;42426;46.104;19.656;2022-11-20T03:34:41;153.80;2252.80
56123;DHT22;42426;46.104;19.656;2022-11-20T03:37:06;153.70;2252.80
56123;DHT22;42426;46.104;19.656;2022-11-20T03:39:32;153.70;2252.80
56123;DHT22;42426;46.104;19.656;2022-11-20T03:41:58;153.60;2252.80
56123;DHT22;42426;46.104;19.656;2022-11-20T03:44:24;153.70;2252.80
56123;DHT22;42426;46.104;19.656;2022-11-20T03:46:49;153.60;2252.80
56123;DHT22;42426;46.104;19.656;2022-11-20T03:49:15;153.70;2252.80
56123;DHT22;42426;46.104;19.656;2022-11-20T03:51:41;153.60;2252.80
56123;DHT22;42426;46.104;19.656;2022-11-20T03:54:08;153.60;2252.80
56123;DHT22;42426;46.104;19.656;2022-11-20T03:56:36;128.90;2252.80
56123;DHT22;42426;46.104;19.656;2022-11-20T03:59:03;153.60;2252.80
56123;DHT22;42426;46.104;19.656;2022-11-20T04:01:38;153.60;2252.80
56123;DHT22;42426;46.104;19.656;2022-11-20T04:04:04;128.90;2252.80
56123;DHT22;42426;46.104;19.656;2022-11-20T04:06:34;128.90;2252.80
56123;DHT22;42426;46.104;19.656;2022-11-20T04:09:00;128.90;2252.80
56123;DHT22;42426;46.104;19.656;2022-11-20T04:11:36;128.80;2252.80
56123;DHT22;42426;46.104;19.656;2022-11-20T04:14:06;128.80;2252.80
56123;DHT22;42426;46.104;19.656;2022-11-20T04:16:37;128.90;2252.80
56123;DHT22;42426;46.104;19.656;2022-11-20T04:19:05;128.90;2252.80
56123;DHT22;42426;46.104;19.656;2022-11-20T04:21:31;128.90;2252.80
56123;DHT22;42426;46.104;19.656;2022-11-20T04:23:58;128.90;2252.80
56123;DHT22;42426;46.104;19.656;2022-11-20T04:26:25;128.90;2252.80
56123;DHT22;42426;46.104;19.656;2022-11-20T04:28:52;128.70;2252.80
56123;DHT22;42426;46.104;19.656;2022-11-20T04:31:20;128.80;2252.80
56123;DHT22;42426;46.104;19.656;2022-11-20T04:33:46;128.80;2252.80
56123;DHT22;42426;46.104;19.656;2022-11-20T04:38:40;128.80;2252.80
56123;DHT22;42426;46.104;19.656;2022-11-20T04:41:09;128.80;2252.80
56123;DHT22;42426;46.104;19.656;2022-11-20T04:43:36;128.80;2252.80
56123;DHT22;42426;46.104;19.656;2022-11-20T04:46:02;128.80;2252.80
56123;DHT22;42426;46.104;19.656;2022-11-20T04:48:29;128.80;2252.80
56123;DHT22;42426;46.104;19.656;2022-11-20T04:50:55;128.80;2252.80
56123;DHT22;42426;46.104;19.656;2022-11-20T04:53:22;128.80;2252.80
56123;DHT22;42426;46.104;19.656;2022-11-20T04:55:48;128.80;2252.80
56123;DHT22;42426;46.104;19.656;2022-11-20T04:58:14;128.80;2252.80
56123;DHT22;42426;46.104;19.656;2022-11-20T05:00:40;128.80;2252.80
56123;DHT22;42426;46.104;19.656;2022-11-20T05:03:06;128.70;2252.80
56123;DHT22;42426;46.104;19.656;2022-11-20T05:05:34;128.70;2252.80
56123;DHT22;42426;46.104;19.656;2022-11-20T05:08:00;128.80;2252.80
56123;DHT22;42426;46.104;19.656;2022-11-20T05:10:26;128.80;2252.80
56123;DHT22;42426;46.104;19.656;2022-11-20T05:12:52;128.80;2252.80
56123;DHT22;42426;46.104;19.656;2022-11-20T05:15:18;128.70;2252.80
56123;DHT22;42426;46.104;19.656;2022-11-20T05:17:51;128.80;2252.80
56123;DHT22;42426;46.104;19.656;2022-11-20T05:20:18;128.70;2252.80
56123;DHT22;42426;46.104;19.656;2022-11-20T05:22:44;128.80;2252.80
56123;DHT22;42426;46.104;19.656;2022-11-20T05:25:11;128.80;2252.80
56123;DHT22;42426;46.104;19.656;2022-11-20T05:27:37;128.70;2252.80
56123;DHT22;42426;46.104;19.656;2022-11-20T05:30:04;128.70;2252.80
56123;DHT22;42426;46.104;19.656;2022-11-20T05:32:30;128.70;2252.80
56123;DHT22;42426;46.104;19.656;2022-11-20T05:34:56;128.70;2252.80
56123;DHT22;42426;46.104;19.656;2022-11-20T05:37:22;128.70;2252.80
56123;DHT22;42426;46.104;19.656;2022-11-20T05:39:47;128.80;2252.80
56123;DHT22;42426;46.104;19.656;2022-11-20T05:42:13;128.70;2252.80
56123;DHT22;42426;46.104;19.656;2022-11-20T05:45:02;128.70;2252.80
56123;DHT22;42426;46.104;19.656;2022-11-20T05:47:32;128.70;2252.80
56123;DHT22;42426;46.104;19.656;2022-11-20T05:49:58;128.70;2252.80
56123;DHT22;42426;46.104;19.656;2022-11-20T05:52:24;128.70;2252.80
56123;DHT22;42426;46.104;19.656;2022-11-20T05:54:50;128.70;2252.80
56123;DHT22;42426;46.104;19.656;2022-11-20T05:57:16;128.70;2252.80
56123;DHT22;42426;46.104;19.656;2022-11-20T05:59:42;128.70;2252.80
56123;DHT22;42426;46.104;19.656;2022-11-20T06:02:08;128.80;2252.80
56123;DHT22;42426;46.104;19.656;2022-11-20T06:04:34;128.70;2252.80
56123;DHT22;42426;46.104;19.656;2022-11-20T06:07:00;128.50;2252.80
56123;DHT22;42426;46.104;19.656;2022-11-20T06:09:26;128.70;2252.80
56123;DHT22;42426;46.104;19.656;2022-11-20T06:11:52;128.70;2252.80
56123;DHT22;42426;46.104;19.656;2022-11-20T06:14:17;128.70;2252.80
56123;DHT22;42426;46.104;19.656;2022-11-20T06:16:48;128.70;2252.80
56123;DHT22;42426;46.104;19.656;2022-11-20T06:19:14;128.70;2252.80
56123;DHT22;42426;46.104;19.656;2022-11-20T06:21:42;128.70;2252.80
56123;DHT22;42426;46.104;19.656;2022-11-20T06:24:11;128.70;2252.80
56123;DHT22;42426;46.104;19.656;2022-11-20T06:26:37;128.70;2252.80
56123;DHT22;42426;46.104;19.656;2022-11-20T06:29:04;128.70;2252.80
56123;DHT22;42426;46.104;19.656;2022-11-20T06:31:29;128.60;2252.80
56123;DHT22;42426;46.104;19.656;2022-11-20T06:33:58;128.60;2252.80
56123;DHT22;42426;46.104;19.656;2022-11-20T06:36:23;128.60;2252.80
56123;DHT22;42426;46.104;19.656;2022-11-20T06:38:49;128.60;2252.80
56123;DHT22;42426;46.104;19.656;2022-11-20T06:41:18;128.60;2252.80
56123;DHT22;42426;46.104;19.656;2022-11-20T06:43:44;128.70;2252.80
56123;DHT22;42426;46.104;19.656;2022-11-20T06:46:11;128.70;2252.80
56123;DHT22;42426;46.104;19.656;2022-11-20T06:48:37;128.70;2252.80
56123;DHT22;42426;46.104;19.656;2022-11-20T06:51:04;128.60;2252.80
56123;DHT22;42426;46.104;19.656;2022-11-20T06:53:30;128.60;2252.80
56123;DHT22;42426;46.104;19.656;2022-11-20T06:55:57;128.70;2252.80
56123;DHT22;42426;46.104;19.656;2022-11-20T06:58:27;128.60;2252.80
56123;DHT22;42426;46.104;19.656;2022-11-20T07:00:53;128.60;2252.80
56123;DHT22;42426;46.104;19.656;2022-11-20T07:03:19;128.60;2252.80
56123;DHT22;42426;46.104;19.656;2022-11-20T07:05:45;128.50;2252.80
56123;DHT22;42426;46.104;19.656;2022-11-20T07:08:12;128.40;2252.80
56123;DHT22;42426;46.104;19.656;2022-11-20T07:10:38;128.50;2252.80
56123;DHT22;42426;46.104;19.656;2022-11-20T07:13:04;128.60;2252.80
56123;DHT22;42426;46.104;19.656;2022-11-20T07:15:30;128.60;2252.80
56123;DHT22;42426;46.104;19.656;2022-11-20T07:17:58;128.60;2252.80
56123;DHT22;42426;46.104;19.656;2022-11-20T07:20:24;128.70;2252.80
56123;DHT22;42426;46.104;19.656;2022-11-20T07:22:57;128.70;2252.80
56123;DHT22;42426;46.104;19.656;2022-11-20T07:25:27;128.60;2252.80
56123;DHT22;42426;46.104;19.656;2022-11-20T07:27:57;128.60;2252.80
56123;DHT22;42426;46.104;19.656;2022-11-20T07:30:23;128.50;2252.80
56123;DHT22;42426;46.104;19.656;2022-11-20T07:32:53;128.60;2252.80
56123;DHT22;42426;46.104;19.656;2022-11-20T07:35:19;128.60;2252.80
56123;DHT22;42426;46.104;19.656;2022-11-20T07:37:45;128.60;2252.80
56123;DHT22;42426;46.104;19.656;2022-11-20T07:40:13;128.60;2252.80
56123;DHT22;42426;46.104;19.656;2022-11-20T07:42:39;128.60;2252.80
56123;DHT22;42426;46.104;19.656;2022-11-20T07:45:05;128.70;2252.80
56123;DHT22;42426;46.104;19.656;2022-11-20T07:47:37;128.70;2252.80
56123;DHT22;42426;46.104;19.656;2022-11-20T07:50:03;128.80;2252.80
56123;DHT22;42426;46.104;19.656;2022-11-20T07:52:29;128.70;2252.80
56123;DHT22;42426;46.104;19.656;2022-11-20T07:54:54;128.80;2252.80
56123;DHT22;42426;46.104;19.656;2022-11-20T07:57:21;128.80;2252.80
56123;DHT22;42426;46.104;19.656;2022-11-20T07:59:48;128.70;2252.80
56123;DHT22;42426;46.104;19.656;2022-11-20T08:02:14;128.70;2252.80
56123;DHT22;42426;46.104;19.656;2022-11-20T08:04:39;128.60;2252.80
56123;DHT22;42426;46.104;19.656;2022-11-20T08:07:05;128.70;2252.80
56123;DHT22;42426;46.104;19.656;2022-11-20T08:09:31;128.70;2252.80
56123;DHT22;42426;46.104;19.656;2022-11-20T08:11:59;128.80;2252.80
56123;DHT22;42426;46.104;19.656;2022-11-20T08:15:03;128.70;2252.80
56123;DHT22;42426;46.104;19.656;2022-11-20T08:17:34;128.80;2252.80
56123;DHT22;42426;46.104;19.656;2022-11-20T08:20:00;128.70;2252.80
56123;DHT22;42426;46.104;19.656;2022-11-20T08:22:25;128.80;2252.80
56123;DHT22;42426;46.104;19.656;2022-11-20T08:24:52;128.90;2252.80
56123;DHT22;42426;46.104;19.656;2022-11-20T08:27:18;128.90;2252.80
56123;DHT22;42426;46.104;19.656;2022-11-20T08:29:44;128.90;2252.80
56123;DHT22;42426;46.104;19.656;2022-11-20T08:32:10;128.80;2252.80
56123;DHT22;42426;46.104;19.656;2022-11-20T08:34:35;128.90;2252.80
56123;DHT22;42426;46.104;19.656;2022-11-20T08:37:02;128.90;2252.80
56123;DHT22;42426;46.104;19.656;2022-11-20T08:39:28;128.90;2252.80
56123;DHT22;42426;46.104;19.656;2022-11-20T08:41:54;128.90;2252.80
56123;DHT22;42426;46.104;19.656;2022-11-20T08:44:20;128.90;2252.80
56123;DHT22;42426;46.104;19.656;2022-11-20T08:46:46;128.90;2252.80
56123;DHT22;42426;46.104;19.656;2022-11-20T08:49:13;153.60;2252.80
56123;DHT22;42426;46.104;19.656;2022-11-20T08:51:40;153.60;2252.80
56123;DHT22;42426;46.104;19.656;2022-11-20T08:54:07;153.60;2252.80
56123;DHT22;42426;46.104;19.656;2022-11-20T08:56:33;153.60;2252.80
56123;DHT22;42426;46.104;19.656;2022-11-20T08:58:58;153.70;2252.80
56123;DHT22;42426;46.104;19.656;2022-11-20T09:01:28;153.70;2252.80
56123;DHT22;42426;46.104;19.656;2022-11-20T09:03:57;153.60;2252.80
56123;DHT22;42426;46.104;19.656;2022-11-20T09:06:25;153.60;2252.80
56123;DHT22;42426;46.104;19.656;2022-11-20T09:08:54;128.90;2252.80
56123;DHT22;42426;46.104;19.656;2022-11-20T09:11:20;153.60;2252.80
56123;DHT22;42426;46.104;19.656;2022-11-20T09:13:47;153.60;2252.80
56123;DHT22;42426;46.104;19.656;2022-11-20T09:16:12;153.70;2252.80
56123;DHT22;42426;46.104;19.656;2022-11-20T09:18:39;153.80;2252.80
56123;DHT22;42426;46.104;19.656;2022-11-20T09:21:10;153.90;2252.80
56123;DHT22;42426;46.104;19.656;2022-11-20T09:23:38;153.80;2252.80
56123;DHT22;42426;46.104;19.656;2022-11-20T09:26:05;153.90;2252.80
56123;DHT22;42426;46.104;19.656;2022-11-20T09:28:32;153.90;2252.80
56123;DHT22;42426;46.104;19.656;2022-11-20T09:30:58;154.00;2252.80
56123;DHT22;42426;46.104;19.656;2022-11-20T09:33:24;153.90;2252.80
56123;DHT22;42426;46.104;19.656;2022-11-20T09:35:50;154.00;2252.80
56123;DHT22;42426;46.104;19.656;2022-11-20T09:38:16;154.00;2252.80
56123;DHT22;42426;46.104;19.656;2022-11-20T09:40:58;154.10;2252.80
56123;DHT22;42426;46.104;19.656;2022-11-20T09:43:55;154.10;2252.80
56123;DHT22;42426;46.104;19.656;2022-11-20T09:46:33;154.00;2252.80
56123;DHT22;42426;46.104;19.656;2022-11-20T09:52:27;154.10;2252.80
56123;DHT22;42426;46.104;19.656;2022-11-20T09:54:55;154.20;2252.80
56123;DHT22;42426;46.104;19.656;2022-11-20T09:57:27;154.10;2252.80
56123;DHT22;42426;46.104;19.656;2022-11-20T10:00:00;154.20;2252.80
56123;DHT22;42426;46.104;19.656;2022-11-20T10:02:34;154.30;2252.80
56123;DHT22;42426;46.104;19.656;2022-11-20T10:05:06;154.30;2252.80
56123;DHT22;42426;46.104;19.656;2022-11-20T10:07:48;154.30;2252.80
56123;DHT22;42426;46.104;19.656;2022-11-20T10:10:46;154.30;2252.80
56123;DHT22;42426;46.104;19.656;2022-11-20T10:13:31;154.40;2252.80
56123;DHT22;42426;46.104;19.656;2022-11-20T10:19:15;154.40;2252.80
56123;DHT22;42426;46.104;19.656;2022-11-20T10:27:26;154.50;2252.80
56123;DHT22;42426;46.104;19.656;2022-11-20T10:30:08;154.50;2252.80
56123;DHT22;42426;46.104;19.656;2022-11-20T10:32:41;154.50;2252.80
56123;DHT22;42426;46.104;19.656;2022-11-20T10:35:19;179.20;2252.80
56123;DHT22;42426;46.104;19.656;2022-11-20T10:37:58;179.20;2252.80
56123;DHT22;42426;46.104;19.656;2022-11-20T10:40:44;179.20;2252.80
56123;DHT22;42426;46.104;19.656;2022-11-20T10:43:21;179.30;2252.80
56123;DHT22;42426;46.104;19.656;2022-11-20T10:48:28;179.40;2252.80
56123;DHT22;42426;46.104;19.656;2022-11-20T10:51:21;179.40;2252.80
56123;DHT22;42426;46.104;19.656;2022-11-20T10:53:56;179.50;2252.80
56123;DHT22;42426;46.104;19.656;2022-11-20T10:59:44;179.50;2252.80
56123;DHT22;42426;46.104;19.656;2022-11-20T11:02:31;179.60;2252.80
56123;DHT22;42426;46.104;19.656;2022-11-20T11:05:49;179.50;2252.80
56123;DHT22;42426;46.104;19.656;2022-11-20T11:07:52;179.70;2252.80
56123;DHT22;42426;46.104;19.656;2022-11-20T11:13:00;179.70;2252.80
56123;DHT22;42426;46.104;19.656;2022-11-20T11:15:29;179.80;2252.80
56123;DHT22;42426;46.104;19.656;2022-11-20T11:17:56;179.80;2252.80
56123;DHT22;42426;46.104;19.656;2022-11-20T11:20:24;179.70;2252.80
56123;DHT22;42426;46.104;19.656;2022-11-20T11:22:55;179.90;2252.80
56123;DHT22;42426;46.104;19.656;2022-11-20T11:25:28;179.90;2252.80
56123;DHT22;42426;46.104;19.656;2022-11-20T11:28:19;180.00;2252.80
56123;DHT22;42426;46.104;19.656;2022-11-20T11:30:45;180.00;2252.80
56123;DHT22;42426;46.104;19.656;2022-11-20T11:33:20;180.00;2252.80
56123;DHT22;42426;46.104;19.656;2022-11-20T11:35:55;180.10;2252.80
56123;DHT22;42426;46.104;19.656;2022-11-20T11:38:41;180.10;2252.80
56123;DHT22;42426;46.104;19.656;2022-11-20T11:41:16;180.10;2252.80
56123;DHT22;42426;46.104;19.656;2022-11-20T11:43:51;204.80;2252.80
56123;DHT22;42426;46.104;19.656;2022-11-20T11:46:36;204.80;2252.80
56123;DHT22;42426;46.104;19.656;2022-11-20T11:51:45;204.90;2252.80
56123;DHT22;42426;46.104;19.656;2022-11-20T11:57:23;205.00;2252.80
56123;DHT22;42426;46.104;19.656;2022-11-20T12:00:11;205.10;2252.80
56123;DHT22;42426;46.104;19.656;2022-11-20T12:16:02;205.10;2252.80
56123;DHT22;42426;46.104;19.656;2022-11-20T12:18:29;205.00;2252.80
56123;DHT22;42426;46.104;19.656;2022-11-20T12:21:11;205.00;2252.80
56123;DHT22;42426;46.104;19.656;2022-11-20T12:26:43;205.00;2252.80
56123;DHT22;42426;46.104;19.656;2022-11-20T12:29:27;204.90;2252.80
56123;DHT22;42426;46.104;19.656;2022-11-20T12:34:56;205.00;2252.80
56123;DHT22;42426;46.104;19.656;2022-11-20T12:40:45;205.10;2252.80
56123;DHT22;42426;46.104;19.656;2022-11-20T12:43:26;205.10;2252.80
56123;DHT22;42426;46.104;19.656;2022-11-20T13:00:22;205.10;2252.80
56123;DHT22;42426;46.104;19.656;2022-11-20T13:03:24;205.10;2252.80
56123;DHT22;42426;46.104;19.656;2022-11-20T13:06:03;205.10;2252.80
56123;DHT22;42426;46.104;19.656;2022-11-20T13:08:37;205.10;2252.80
56123;DHT22;42426;46.104;19.656;2022-11-20T13:17:11;205.20;2252.80
56123;DHT22;42426;46.104;19.656;2022-11-20T13:19:39;205.10;2252.80
56123;DHT22;42426;46.104;19.656;2022-11-20T13:22:07;205.10;2252.80
56123;DHT22;42426;46.104;19.656;2022-11-20T13:24:33;205.10;2252.80
56123;DHT22;42426;46.104;19.656;2022-11-20T13:29:41;205.10;2252.80
56123;DHT22;42426;46.104;19.656;2022-11-20T13:32:17;205.10;2252.80
56123;DHT22;42426;46.104;19.656;2022-11-20T13:34:57;205.20;2252.80
56123;DHT22;42426;46.104;19.656;2022-11-20T13:37:30;205.20;2252.80
56123;DHT22;42426;46.104;19.656;2022-11-20T13:45:24;205.20;2252.80
56123;DHT22;42426;46.104;19.656;2022-11-20T13:47:55;205.20;2252.80
56123;DHT22;42426;46.104;19.656;2022-11-20T13:55:54;205.20;2252.80
56123;DHT22;42426;46.104;19.656;2022-11-20T14:01:21;205.20;2252.80
56123;DHT22;42426;46.104;19.656;2022-11-20T14:03:50;205.20;2252.80
56123;DHT22;42426;46.104;19.656;2022-11-20T14:06:43;205.20;2252.80
56123;DHT22;42426;46.104;19.656;2022-11-20T14:09:28;205.20;2252.80
56123;DHT22;42426;46.104;19.656;2022-11-20T14:11:54;205.10;2252.80
56123;DHT22;42426;46.104;19.656;2022-11-20T14:14:23;205.10;2252.80
56123;DHT22;42426;46.104;19.656;2022-11-20T14:16:49;205.20;2252.80
56123;DHT22;42426;46.104;19.656;2022-11-20T14:21:55;205.10;2252.80
56123;DHT22;42426;46.104;19.656;2022-11-20T14:24:32;205.10;2252.80
56123;DHT22;42426;46.104;19.656;2022-11-20T14:26:58;205.10;2252.80
56123;DHT22;42426;46.104;19.656;2022-11-20T14:29:29;205.10;2252.80
56123;DHT22;42426;46.104;19.656;2022-11-20T14:31:57;205.10;2252.80
56123;DHT22;42426;46.104;19.656;2022-11-20T14:34:28;205.10;2252.80
56123;DHT22;42426;46.104;19.656;2022-11-20T14:37:09;205.10;2252.80
56123;DHT22;42426;46.104;19.656;2022-11-20T14:39:41;205.10;2252.80
56123;DHT22;42426;46.104;19.656;2022-11-20T14:44:45;205.10;2252.80
56123;DHT22;42426;46.104;19.656;2022-11-20T14:47:27;205.10;2252.80
56123;DHT22;42426;46.104;19.656;2022-11-20T14:49:55;205.10;2252.80
56123;DHT22;42426;46.104;19.656;2022-11-20T14:52:24;205.10;2252.80
56123;DHT22;42426;46.104;19.656;2022-11-20T14:54:55;205.00;2252.80
56123;DHT22;42426;46.104;19.656;2022-11-20T14:57:30;205.00;2252.80
56123;DHT22;42426;46.104;19.656;2022-11-20T15:02:46;205.00;2252.80
56123;DHT22;42426;46.104;19.656;2022-11-20T15:05:14;204.90;2252.80
56123;DHT22;42426;46.104;19.656;2022-11-20T15:07:46;204.90;2252.80
56123;DHT22;42426;46.104;19.656;2022-11-20T15:10:27;204.90;2252.80
56123;DHT22;42426;46.104;19.656;2022-11-20T15:13:00;204.90;2252.80
56123;DHT22;42426;46.104;19.656;2022-11-20T15:18:13;204.80;2252.80
56123;DHT22;42426;46.104;19.656;2022-11-20T15:20:41;204.80;2252.80
56123;DHT22;42426;46.104;19.656;2022-11-20T15:23:15;204.80;2252.80
56123;DHT22;42426;46.104;19.656;2022-11-20T15:25:43;204.80;2252.80
56123;DHT22;42426;46.104;19.656;2022-11-20T15:28:17;204.80;2252.80
56123;DHT22;42426;46.104;19.656;2022-11-20T15:30:44;204.80;2252.80
56123;DHT22;42426;46.104;19.656;2022-11-20T15:33:10;204.80;2252.80
56123;DHT22;42426;46.104;19.656;2022-11-20T15:35:37;204.80;2252.80
56123;DHT22;42426;46.104;19.656;2022-11-20T15:38:03;204.80;2252.80
56123;DHT22;42426;46.104;19.656;2022-11-20T15:40:28;204.80;2252.80
56123;DHT22;42426;46.104;19.656;2022-11-20T15:42:54;204.80;2252.80
56123;DHT22;42426;46.104;19.656;2022-11-20T15:45:41;180.10;2252.80
56123;DHT22;42426;46.104;19.656;2022-11-20T15:48:21;180.10;2252.80
56123;DHT22;42426;46.104;19.656;2022-11-20T15:53:23;180.00;2252.80
56123;DHT22;42426;46.104;19.656;2022-11-20T15:55:49;180.00;2252.80
56123;DHT22;42426;46.104;19.656;2022-11-20T15:58:15;180.00;2252.80
56123;DHT22;42426;46.104;19.656;2022-11-20T16:00:42;180.00;2252.80
56123;DHT22;42426;46.104;19.656;2022-11-20T16:03:12;180.00;2252.80
56123;DHT22;42426;46.104;19.656;2022-11-20T16:05:38;180.00;2252.80
56123;DHT22;42426;46.104;19.656;2022-11-20T16:08:05;180.00;2252.80
56123;DHT22;42426;46.104;19.656;2022-11-20T16:10:31;180.00;2252.80
56123;DHT22;42426;46.104;19.656;2022-11-20T16:12:57;180.00;2252.80
56123;DHT22;42426;46.104;19.656;2022-11-20T16:15:41;180.00;2252.80
56123;DHT22;42426;46.104;19.656;2022-11-20T16:18:19;180.00;2252.80
56123;DHT22;42426;46.104;19.656;2022-11-20T16:20:47;180.00;2252.80
56123;DHT22;42426;46.104;19.656;2022-11-20T16:23:13;180.00;2252.80
56123;DHT22;42426;46.104;19.656;2022-11-20T16:25:41;180.00;2252.80
56123;DHT22;42426;46.104;19.656;2022-11-20T16:28:07;180.00;2252.80
56123;DHT22;42426;46.104;19.656;2022-11-20T16:30:33;180.00;2252.80
56123;DHT22;42426;46.104;19.656;2022-11-20T16:33:00;180.00;2252.80
56123;DHT22;42426;46.104;19.656;2022-11-20T16:35:27;180.00;2252.80
56123;DHT22;42426;46.104;19.656;2022-11-20T16:37:55;180.00;2252.80